createdAt,value
2022-08-19T00:01:02.764Z,29.49
2022-08-19T00:02:21.064Z,29.49
2022-08-19T00:03:37.727Z,29.65
2022-08-19T00:04:54.194Z,29.49
2022-08-19T00:06:12.527Z,29.33
2022-08-19T00:07:30.838Z,29.49
2022-08-19T00:08:49.168Z,29.65
2022-08-19T00:10:07.770Z,29.65
2022-08-19T00:11:25.911Z,29.65
2022-08-19T00:12:47.063Z,29.65
2022-08-19T00:14:05.559Z,29.65
2022-08-19T00:15:21.920Z,29.65
2022-08-19T00:16:38.562Z,29.97
2022-08-19T00:17:54.952Z,29.65
2022-08-19T00:19:14.168Z,29.49
2022-08-19T00:20:32.514Z,29.33
2022-08-19T00:21:50.834Z,29.65
2022-08-19T00:23:09.462Z,29.97
2022-08-19T00:24:25.835Z,29.65
2022-08-19T00:25:44.145Z,29.97
2022-08-19T00:27:25.185Z,29.33
2022-08-19T00:28:28.291Z,29.97
2022-08-19T00:29:44.940Z,29.97
2022-08-19T00:31:02.143Z,29.81
2022-08-19T00:32:18.508Z,30.29
2022-08-19T00:33:35.539Z,29.33
2022-08-19T00:34:53.868Z,29.65
2022-08-19T00:36:11.450Z,29.81
2022-08-19T00:37:29.821Z,32.55
2022-08-19T00:38:46.180Z,29.65
2022-08-19T00:40:04.559Z,29.97
2022-08-19T00:41:21.021Z,29.81
2022-08-19T00:42:37.682Z,29.65
2022-08-19T00:43:54.053Z,29.97
2022-08-19T00:45:12.383Z,29.49
2022-08-19T00:46:28.825Z,29.49
2022-08-19T00:47:47.145Z,29.65
2022-08-19T00:49:05.746Z,29.33
2022-08-19T00:50:24.079Z,29.65
2022-08-19T00:51:42.456Z,29.81
2022-08-19T00:53:00.782Z,29.65
2022-08-19T00:54:19.078Z,29.65
2022-08-19T00:55:42.258Z,29.65
2022-08-19T00:57:00.858Z,29.97
2022-08-19T00:58:19.189Z,29.17
2022-08-19T01:00:00.993Z,29.17
2022-08-19T01:00:58.722Z,29.33
2022-08-19T01:02:17.064Z,29.65
2022-08-19T01:03:57.077Z,29.65
2022-08-19T01:04:58.542Z,29.81
2022-08-19T01:06:20.098Z,29.49
2022-08-19T01:07:39.514Z,29.65
2022-08-19T01:08:57.845Z,29.49
2022-08-19T01:10:16.155Z,29.49
2022-08-19T01:11:34.535Z,29.65
2022-08-19T01:12:51.239Z,29.65
2022-08-19T01:14:09.567Z,29.49
2022-08-19T01:15:27.867Z,29.65
2022-08-19T01:16:46.247Z,29.65
2022-08-19T01:18:04.560Z,29.65
2022-08-19T01:19:21.220Z,29.81
2022-08-19T01:20:39.529Z,29.65
2022-08-19T01:21:55.940Z,29.81
2022-08-19T01:23:14.252Z,29.81
2022-08-19T01:24:32.581Z,29.49
2022-08-19T01:25:49.223Z,29.33
2022-08-19T01:27:06.093Z,29.65
2022-08-19T01:28:34.172Z,29.49
2022-08-19T01:29:50.285Z,29.65
2022-08-19T01:31:08.590Z,29.81
2022-08-19T01:32:33.714Z,29.65
2022-08-19T01:33:48.926Z,29.65
2022-08-19T01:35:07.259Z,29.81
2022-08-19T01:36:25.556Z,29.65
2022-08-19T01:37:43.926Z,29.65
2022-08-19T01:39:00.568Z,29.97
2022-08-19T01:40:18.410Z,29.49
2022-08-19T01:41:34.781Z,30.29
2022-08-19T01:42:53.260Z,29.65
2022-08-19T01:44:17.825Z,29.33
2022-08-19T01:45:34.791Z,29.97
2022-08-19T01:46:51.172Z,29.17
2022-08-19T01:48:09.501Z,29.65
2022-08-19T01:49:27.812Z,29.33
2022-08-19T01:50:46.442Z,29.17
2022-08-19T01:52:04.783Z,29.81
2022-08-19T01:53:21.155Z,29.33
2022-08-19T01:54:39.295Z,29.65
2022-08-19T01:55:57.614Z,29.33
2022-08-19T01:57:14.285Z,29.65
2022-08-19T01:58:32.606Z,29.65
2022-08-19T01:59:48.964Z,29.49
2022-08-19T02:01:07.342Z,29.81
2022-08-19T02:02:25.657Z,29.65
2022-08-19T02:03:42.315Z,29.49
2022-08-19T02:04:58.669Z,29.65
2022-08-19T02:06:15.039Z,29.65
2022-08-19T02:07:31.429Z,29.49
2022-08-19T02:08:47.809Z,29.00
2022-08-19T02:10:11.329Z,29.65
2022-08-19T02:11:27.733Z,29.49
2022-08-19T02:12:46.138Z,29.49
2022-08-19T02:14:03.982Z,29.81
2022-08-19T02:15:20.349Z,29.81
2022-08-19T02:16:38.973Z,29.33
2022-08-19T02:17:57.324Z,29.81
2022-08-19T02:19:15.684Z,29.65
2022-08-19T02:20:33.985Z,29.65
2022-08-19T02:21:52.319Z,29.00
2022-08-19T02:23:13.503Z,29.33
2022-08-19T02:24:32.167Z,29.65
2022-08-19T02:25:50.468Z,29.65
2022-08-19T02:27:08.798Z,29.00
2022-08-19T02:28:25.149Z,29.81
2022-08-19T02:29:41.830Z,29.65
2022-08-19T02:31:00.133Z,29.81
2022-08-19T02:32:18.454Z,29.65
2022-08-19T02:33:34.831Z,29.00
2022-08-19T02:34:53.161Z,29.33
2022-08-19T02:36:11.742Z,29.81
2022-08-19T02:37:29.223Z,29.49
2022-08-19T02:38:54.330Z,29.81
2022-08-19T02:40:12.375Z,29.65
2022-08-19T02:41:29.159Z,29.33
2022-08-19T02:42:45.815Z,29.65
2022-08-19T02:44:29.662Z,29.65
2022-08-19T02:45:27.389Z,29.65
2022-08-19T02:46:45.748Z,29.49
2022-08-19T02:48:02.087Z,29.65
2022-08-19T02:49:21.978Z,29.81
2022-08-19T02:50:38.368Z,29.65
2022-08-19T02:51:54.749Z,29.33
2022-08-19T02:53:11.102Z,29.49
2022-08-19T02:54:29.130Z,29.97
2022-08-19T02:55:47.792Z,29.81
2022-08-19T02:57:04.163Z,29.33
2022-08-19T02:58:22.474Z,29.65
2022-08-19T02:59:40.803Z,29.65
2022-08-19T03:00:59.200Z,29.65
2022-08-19T03:02:15.895Z,29.33
2022-08-19T03:03:32.284Z,29.65
2022-08-19T03:04:50.615Z,29.81
2022-08-19T03:06:08.928Z,29.17
2022-08-19T03:07:27.257Z,29.00
2022-08-19T03:08:45.887Z,29.49
2022-08-19T03:10:04.227Z,29.65
2022-08-19T03:11:22.528Z,29.97
2022-08-19T03:12:40.901Z,29.97
2022-08-19T03:13:57.259Z,29.81
2022-08-19T03:15:15.869Z,29.00
2022-08-19T03:16:34.182Z,29.33
2022-08-19T03:17:52.550Z,30.13
2022-08-19T03:19:10.870Z,29.33
2022-08-19T03:20:29.193Z,29.49
2022-08-19T03:21:45.834Z,29.65
2022-08-19T03:23:04.263Z,29.65
2022-08-19T03:24:22.581Z,29.65
2022-08-19T03:25:40.903Z,31.10
2022-08-19T03:26:59.216Z,29.00
2022-08-19T03:28:17.916Z,30.29
2022-08-19T03:29:43.041Z,29.65
2022-08-19T03:30:59.396Z,29.49
2022-08-19T03:32:31.691Z,29.65
2022-08-19T03:33:42.928Z,29.65
2022-08-19T03:35:04.398Z,29.81
2022-08-19T03:36:22.728Z,29.65
2022-08-19T03:37:41.101Z,29.65
2022-08-19T03:38:59.763Z,33.19
2022-08-19T03:40:18.605Z,29.97
2022-08-19T03:41:45.196Z,29.81
2022-08-19T03:43:00.198Z,29.97
2022-08-19T03:44:19.329Z,29.81
2022-08-19T03:45:37.853Z,30.29
2022-08-19T03:46:56.483Z,29.65
2022-08-19T03:48:14.796Z,29.17
2022-08-19T03:49:33.175Z,29.17
2022-08-19T03:50:50.305Z,30.29
2022-08-19T03:52:08.690Z,29.17
2022-08-19T03:53:27.247Z,29.97
2022-08-19T03:54:45.607Z,30.29
2022-08-19T03:56:03.918Z,29.97
2022-08-19T03:57:24.445Z,29.81
2022-08-19T03:58:45.388Z,29.65
2022-08-19T04:00:12.978Z,29.65
2022-08-19T04:01:35.113Z,29.65
2022-08-19T04:02:56.531Z,29.17
2022-08-19T04:04:14.683Z,29.65
2022-08-19T04:05:33.011Z,29.65
2022-08-19T04:06:49.632Z,29.65
2022-08-19T04:08:13.308Z,30.45
2022-08-19T04:09:29.234Z,30.13
2022-08-19T04:10:47.554Z,29.81
2022-08-19T04:12:05.854Z,30.29
2022-08-19T04:13:24.554Z,30.13
2022-08-19T04:14:42.866Z,30.45
2022-08-19T04:16:01.206Z,29.49
2022-08-19T04:17:19.517Z,30.94
2022-08-19T04:18:37.898Z,30.13
2022-08-19T04:19:54.568Z,29.65
2022-08-19T04:21:12.918Z,29.49
2022-08-19T04:22:30.239Z,30.45
2022-08-19T04:23:48.600Z,34.48
2022-08-19T04:25:06.921Z,37.87
2022-08-19T04:26:25.531Z,30.29
2022-08-19T04:27:43.892Z,31.26
2022-08-19T04:29:02.223Z,31.90
2022-08-19T04:30:20.532Z,33.68
2022-08-19T04:31:38.842Z,31.58
2022-08-19T04:32:57.453Z,30.29
2022-08-19T04:34:15.773Z,31.10
2022-08-19T04:35:34.143Z,31.10
2022-08-19T04:36:51.455Z,31.74
2022-08-19T04:38:08.785Z,31.42
2022-08-19T04:39:26.492Z,32.23
2022-08-19T04:40:44.936Z,43.83
2022-08-19T04:42:03.257Z,65.74
2022-08-19T04:43:20.578Z,34.16
2022-08-19T04:44:46.041Z,40.12
2022-08-19T04:46:02.199Z,38.99
2022-08-19T04:47:20.907Z,40.28
2022-08-19T04:48:49.175Z,54.14
2022-08-19T04:50:06.863Z,38.35
2022-08-19T04:51:25.945Z,50.76
2022-08-19T04:52:44.313Z,40.12
2022-08-19T04:54:01.602Z,42.70
2022-08-19T04:55:19.951Z,41.25
2022-08-19T04:56:39.332Z,39.64
2022-08-19T04:57:57.924Z,35.45
2022-08-19T04:59:15.230Z,37.38
2022-08-19T05:00:33.585Z,39.16
2022-08-19T05:01:56.030Z,47.53
2022-08-19T05:03:14.857Z,41.09
2022-08-19T05:04:32.476Z,41.73
2022-08-19T05:05:49.827Z,54.79
2022-08-19T05:07:07.232Z,38.19
2022-08-19T05:08:30.884Z,39.64
2022-08-19T05:09:57.874Z,35.29
2022-08-19T05:11:11.483Z,38.19
2022-08-19T05:12:33.029Z,40.12
2022-08-19T05:13:51.350Z,37.54
2022-08-19T05:15:08.661Z,39.16
2022-08-19T05:16:27.861Z,63.00
2022-08-19T05:17:46.212Z,55.43
2022-08-19T05:19:04.607Z,62.04
2022-08-19T05:20:23.018Z,59.14
2022-08-19T05:21:41.911Z,66.55
2022-08-19T05:23:01.093Z,42.70
2022-08-19T05:24:23.246Z,39.96
2022-08-19T05:25:41.779Z,51.24
2022-08-19T05:27:06.520Z,42.06
2022-08-19T05:28:24.907Z,41.25
2022-08-19T05:29:43.596Z,47.05
2022-08-19T05:31:03.882Z,41.57
2022-08-19T05:32:21.416Z,49.15
2022-08-19T05:33:40.870Z,39.80
2022-08-19T05:35:00.196Z,46.57
2022-08-19T05:36:18.582Z,36.90
2022-08-19T05:37:37.441Z,39.96
2022-08-19T05:38:55.792Z,43.51
2022-08-19T05:40:14.902Z,54.95
2022-08-19T05:41:34.092Z,65.42
2022-08-19T05:42:55.612Z,44.79
2022-08-19T05:44:15.486Z,55.75
2022-08-19T05:45:35.675Z,57.85
2022-08-19T05:46:54.036Z,37.87
2022-08-19T05:48:13.654Z,53.33
2022-08-19T05:49:32.639Z,46.25
2022-08-19T05:50:50.966Z,44.79
2022-08-19T05:52:10.365Z,47.37
2022-08-19T05:53:28.939Z,48.98
2022-08-19T05:54:46.612Z,39.96
2022-08-19T05:56:05.299Z,44.96
2022-08-19T05:57:22.728Z,38.67
2022-08-19T05:58:40.151Z,38.19
2022-08-19T05:59:58.581Z,42.06
2022-08-19T06:01:16.391Z,41.41
2022-08-19T06:02:32.958Z,46.25
2022-08-19T06:03:51.328Z,42.70
2022-08-19T06:05:08.666Z,39.80
2022-08-19T06:06:26.025Z,53.82
2022-08-19T06:07:44.385Z,42.86
2022-08-19T06:09:01.804Z,51.56
2022-08-19T06:10:21.256Z,43.18
2022-08-19T06:11:39.636Z,52.53
2022-08-19T06:13:04.248Z,57.52
2022-08-19T06:14:27.813Z,44.63
2022-08-19T06:15:46.506Z,65.90
2022-08-19T06:17:07.316Z,54.62
2022-08-19T06:18:26.423Z,39.80
2022-08-19T06:19:44.827Z,44.31
2022-08-19T06:21:03.700Z,44.79
2022-08-19T06:22:24.590Z,47.21
2022-08-19T06:23:43.422Z,48.18
2022-08-19T06:25:05.554Z,37.22
2022-08-19T06:26:24.494Z,42.54
2022-08-19T06:28:11.353Z,39.96
2022-08-19T06:29:09.350Z,37.22
2022-08-19T06:30:27.289Z,37.38
2022-08-19T06:31:46.548Z,39.48
2022-08-19T06:33:07.876Z,42.22
2022-08-19T06:34:27.639Z,39.16
2022-08-19T06:35:47.015Z,41.57
2022-08-19T06:37:05.259Z,40.12
2022-08-19T06:38:22.639Z,38.99
2022-08-19T06:39:41.120Z,36.42
2022-08-19T06:40:58.492Z,38.51
2022-08-19T06:42:16.914Z,40.77
2022-08-19T06:43:35.161Z,36.90
2022-08-19T06:44:56.793Z,34.97
2022-08-19T06:46:15.074Z,35.29
2022-08-19T06:47:33.495Z,36.90
2022-08-19T06:48:52.771Z,39.64
2022-08-19T06:50:12.094Z,50.60
2022-08-19T06:52:51.776Z,57.85
2022-08-19T06:54:18.921Z,42.38
2022-08-19T06:55:34.918Z,47.37
2022-08-19T06:56:53.803Z,54.30
2022-08-19T07:00:04.207Z,62.84
2022-08-19T07:01:27.432Z,36.25
2022-08-19T07:02:50.608Z,39.96
2022-08-19T07:04:08.151Z,76.70
2022-08-19T07:05:31.881Z,55.59
2022-08-19T07:06:54.951Z,48.50
2022-08-19T07:08:17.205Z,55.91
2022-08-19T07:09:37.971Z,52.05
2022-08-19T07:10:56.310Z,38.51
2022-08-19T07:12:14.139Z,52.37
2022-08-19T07:13:33.447Z,51.72
2022-08-19T07:14:51.075Z,60.42
2022-08-19T07:16:09.471Z,51.88
2022-08-19T07:17:31.894Z,65.58
2022-08-19T07:18:54.097Z,52.21
2022-08-19T07:20:12.434Z,55.91
2022-08-19T07:21:35.149Z,51.08
2022-08-19T07:22:56.122Z,64.29
2022-08-19T07:24:14.857Z,37.71
2022-08-19T07:25:33.437Z,49.31
2022-08-19T07:26:52.110Z,48.98
2022-08-19T07:28:15.779Z,59.62
2022-08-19T07:29:35.368Z,68.80
2022-08-19T07:30:53.698Z,57.85
2022-08-19T07:32:13.538Z,56.88
2022-08-19T07:33:31.373Z,69.13
2022-08-19T07:34:51.052Z,62.04
2022-08-19T07:36:09.135Z,59.46
2022-08-19T07:37:32.839Z,68.64
2022-08-19T07:38:50.743Z,44.96
2022-08-19T07:40:09.920Z,53.33
2022-08-19T07:41:27.743Z,38.19
2022-08-19T07:42:45.155Z,40.44
2022-08-19T07:44:02.545Z,53.17
2022-08-19T07:45:21.900Z,42.86
2022-08-19T07:46:39.616Z,37.06
2022-08-19T07:47:57.003Z,39.48
2022-08-19T07:49:15.356Z,42.06
2022-08-19T07:50:34.337Z,51.88
2022-08-19T07:51:51.759Z,39.64
2022-08-19T07:53:09.389Z,38.99
2022-08-19T07:54:27.339Z,39.96
2022-08-19T07:55:44.879Z,40.93
2022-08-19T07:57:03.761Z,36.90
2022-08-19T07:58:22.631Z,38.99
2022-08-19T07:59:40.315Z,54.14
2022-08-19T08:00:58.709Z,50.27
2022-08-19T08:02:16.093Z,54.79
2022-08-19T08:03:35.495Z,46.89
2022-08-19T08:04:53.945Z,43.02
2022-08-19T08:06:13.342Z,36.42
2022-08-19T08:07:40.356Z,35.29
2022-08-19T08:10:57.151Z,41.73
2022-08-19T08:12:32.995Z,36.25
2022-08-19T08:15:31.388Z,39.16
2022-08-19T08:20:35.995Z,43.34
2022-08-19T08:21:54.419Z,39.48
2022-08-19T08:23:12.786Z,41.73
2022-08-19T08:24:30.452Z,39.48
2022-08-19T08:25:50.103Z,36.42
2022-08-19T08:27:11.575Z,57.69
2022-08-19T08:28:37.809Z,42.54
2022-08-19T08:29:57.359Z,41.09
2022-08-19T08:31:16.248Z,38.03
2022-08-19T08:32:36.062Z,41.57
2022-08-19T08:33:57.881Z,38.99
2022-08-19T08:35:22.274Z,48.50
2022-08-19T08:36:39.619Z,63.97
2022-08-19T08:37:58.012Z,38.51
2022-08-19T08:39:16.392Z,37.87
2022-08-19T08:40:34.734Z,57.20
2022-08-19T08:41:52.361Z,42.22
2022-08-19T08:43:11.124Z,50.76
2022-08-19T08:44:30.375Z,41.41
2022-08-19T08:45:53.489Z,40.61
2022-08-19T08:47:14.685Z,39.16
2022-08-19T08:48:32.026Z,44.15
2022-08-19T08:49:51.319Z,45.44
2022-08-19T08:51:10.314Z,40.93
2022-08-19T08:52:31.994Z,37.06
2022-08-19T08:53:50.969Z,38.99
2022-08-19T08:55:14.579Z,40.77
2022-08-19T08:56:33.952Z,37.22
2022-08-19T08:57:51.410Z,41.73
2022-08-19T08:59:12.072Z,39.48
2022-08-19T09:00:29.449Z,40.77
2022-08-19T09:01:48.351Z,38.19
2022-08-19T09:03:07.183Z,40.77
2022-08-19T09:04:29.817Z,52.53
2022-08-19T09:05:53.290Z,56.88
2022-08-19T09:07:22.898Z,40.44
2022-08-19T09:10:28.786Z,35.45
2022-08-19T09:11:47.669Z,36.74
2022-08-19T09:13:09.144Z,40.93
2022-08-19T09:14:49.284Z,40.44
2022-08-19T09:15:50.705Z,37.54
2022-08-19T09:17:08.048Z,37.87
2022-08-19T09:18:26.927Z,37.06
2022-08-19T09:19:48.162Z,38.83
2022-08-19T09:21:07.021Z,38.99
2022-08-19T09:22:26.117Z,39.16
2022-08-19T09:23:46.088Z,38.67
2022-08-19T09:25:09.771Z,49.15
2022-08-19T09:26:47.133Z,40.12
2022-08-19T09:27:52.727Z,35.93
2022-08-19T09:31:05.828Z,40.77
2022-08-19T09:32:26.653Z,37.54
2022-08-19T09:33:45.268Z,38.99
2022-08-19T09:35:08.622Z,60.26
2022-08-19T09:36:31.231Z,39.16
2022-08-19T09:37:51.111Z,41.57
2022-08-19T09:39:14.929Z,40.12
2022-08-19T09:40:38.214Z,40.77
2022-08-19T09:41:56.162Z,39.16
2022-08-19T09:43:33.703Z,43.99
2022-08-19T09:44:41.775Z,48.34
2022-08-19T09:46:03.926Z,41.89
2022-08-19T09:49:12.473Z,35.45
2022-08-19T09:50:33.175Z,40.12
2022-08-19T09:51:54.198Z,37.38
2022-08-19T09:53:12.174Z,54.30
2022-08-19T09:54:33.891Z,39.16
2022-08-19T09:55:57.167Z,34.97
2022-08-19T09:57:17.853Z,39.96
2022-08-19T09:58:35.293Z,49.31
2022-08-19T09:59:53.369Z,39.48
2022-08-19T10:01:11.369Z,40.93
2022-08-19T10:02:34.741Z,41.25
2022-08-19T10:03:55.131Z,35.45
2022-08-19T10:05:26.774Z,39.96
2022-08-19T10:08:31.863Z,35.93
2022-08-19T10:09:53.167Z,36.42
2022-08-19T10:13:04.622Z,39.16
2022-08-19T10:14:23.523Z,37.38
2022-08-19T10:15:47.797Z,43.99
2022-08-19T10:17:17.451Z,36.42
2022-08-19T10:18:28.849Z,35.93
2022-08-19T10:19:55.363Z,38.51
2022-08-19T10:21:11.605Z,34.97
2022-08-19T10:22:34.008Z,36.90
2022-08-19T10:23:55.355Z,39.32
2022-08-19T10:25:23.126Z,37.38
2022-08-19T10:26:44.034Z,36.42
2022-08-19T10:28:04.359Z,37.38
2022-08-19T10:29:31.802Z,37.87
2022-08-19T10:30:46.964Z,37.06
2022-08-19T10:32:05.089Z,38.35
2022-08-19T10:33:38.882Z,48.02
2022-08-19T10:34:51.985Z,51.40
2022-08-19T10:39:56.442Z,45.76
2022-08-19T10:41:13.824Z,34.97
2022-08-19T10:42:31.430Z,39.48
2022-08-19T10:43:49.777Z,41.25
2022-08-19T10:45:08.132Z,43.34
2022-08-19T10:46:27.497Z,38.67
2022-08-19T10:47:45.808Z,43.83
2022-08-19T10:49:04.682Z,55.91
2022-08-19T10:50:22.023Z,31.74
2022-08-19T10:51:47.804Z,30.29
2022-08-19T10:53:08.147Z,29.97
2022-08-19T10:54:33.227Z,31.42
2022-08-19T10:55:50.362Z,29.81
2022-08-19T10:57:08.693Z,30.29
2022-08-19T10:58:26.044Z,30.45
2022-08-19T10:59:43.374Z,31.26
2022-08-19T11:01:01.062Z,30.62
2022-08-19T11:02:19.865Z,30.13
2022-08-19T11:03:37.196Z,30.45
2022-08-19T11:04:56.565Z,30.45
2022-08-19T11:06:16.326Z,29.65
2022-08-19T11:07:34.658Z,29.33
2022-08-19T11:08:53.489Z,31.10
2022-08-19T11:10:13.128Z,29.49
2022-08-19T11:11:30.590Z,29.81
2022-08-19T11:12:49.666Z,30.13
2022-08-19T11:14:06.980Z,30.13
2022-08-19T11:15:24.390Z,29.81
2022-08-19T11:16:41.731Z,29.97
2022-08-19T11:17:59.054Z,29.81
2022-08-19T11:19:16.396Z,31.58
2022-08-19T11:20:33.743Z,29.97
2022-08-19T11:21:52.904Z,29.49
2022-08-19T11:23:16.814Z,30.13
2022-08-19T11:24:34.135Z,31.58
2022-08-19T11:25:51.496Z,29.81
2022-08-19T11:27:08.896Z,30.29
2022-08-19T11:28:26.206Z,30.13
2022-08-19T11:29:43.816Z,30.29
2022-08-19T11:31:01.174Z,29.81
2022-08-19T11:32:19.506Z,29.97
2022-08-19T11:33:36.808Z,29.81
2022-08-19T11:34:55.161Z,29.33
2022-08-19T11:36:12.846Z,29.81
2022-08-19T11:37:33.500Z,30.78
2022-08-19T11:38:50.794Z,29.65
2022-08-19T11:40:09.188Z,29.97
2022-08-19T11:41:27.561Z,29.33
2022-08-19T11:42:45.162Z,30.94
2022-08-19T11:44:02.476Z,30.29
2022-08-19T11:45:19.803Z,29.81
2022-08-19T11:46:38.165Z,30.62
2022-08-19T11:47:55.646Z,30.29
2022-08-19T11:49:14.298Z,31.26
2022-08-19T11:50:31.636Z,29.49
2022-08-19T11:51:50.006Z,29.65
2022-08-19T11:53:08.105Z,30.13
2022-08-19T11:54:29.900Z,30.45
2022-08-19T11:55:47.520Z,29.97
2022-08-19T11:57:04.839Z,29.81
2022-08-19T11:58:23.159Z,30.29
2022-08-19T11:59:41.972Z,30.45
2022-08-19T12:00:59.311Z,29.97
2022-08-19T12:02:15.981Z,30.62
2022-08-19T12:03:33.884Z,30.13
2022-08-19T12:04:51.193Z,30.13
2022-08-19T12:06:08.572Z,30.13
2022-08-19T12:07:26.904Z,29.81
2022-08-19T12:08:44.525Z,30.29
2022-08-19T12:10:01.894Z,30.78
2022-08-19T12:11:22.046Z,29.97
2022-08-19T12:12:40.346Z,30.62
2022-08-19T12:13:59.377Z,31.90
2022-08-19T12:15:17.804Z,29.97
2022-08-19T12:16:37.742Z,30.62
2022-08-19T12:17:57.048Z,30.78
2022-08-19T12:19:15.418Z,32.07
2022-08-19T12:20:38.609Z,35.61
2022-08-19T12:21:56.466Z,30.78
2022-08-19T12:23:14.770Z,33.35
2022-08-19T12:24:33.112Z,29.65
2022-08-19T12:25:51.762Z,29.97
2022-08-19T12:27:12.832Z,30.62
2022-08-19T12:28:30.334Z,30.45
2022-08-19T12:29:48.693Z,30.29
2022-08-19T12:31:07.104Z,31.42
2022-08-19T12:32:24.725Z,30.62
2022-08-19T12:33:43.056Z,37.71
2022-08-19T12:35:00.385Z,32.07
2022-08-19T12:36:17.768Z,32.39
2022-08-19T12:37:35.127Z,30.78
2022-08-19T12:38:54.227Z,33.84
2022-08-19T12:40:11.780Z,32.39
2022-08-19T12:41:30.138Z,51.24
2022-08-19T12:42:48.449Z,38.99
2022-08-19T12:44:06.676Z,33.68
2022-08-19T12:45:26.919Z,31.26
2022-08-19T12:46:45.271Z,29.81
2022-08-19T12:48:03.621Z,30.45
2022-08-19T12:49:52.721Z,34.80
2022-08-19T12:50:48.913Z,32.87
2022-08-19T12:52:06.637Z,35.29
2022-08-19T12:53:25.065Z,34.16
2022-08-19T12:54:43.386Z,32.87
2022-08-19T12:56:01.696Z,36.90
2022-08-19T12:57:20.058Z,30.13
2022-08-19T12:58:37.716Z,30.78
2022-08-19T12:59:56.054Z,30.45
2022-08-19T13:01:13.406Z,33.03
2022-08-19T13:02:31.728Z,29.65
2022-08-19T13:03:53.930Z,30.13
2022-08-19T13:05:12.029Z,30.13
2022-08-19T13:06:29.841Z,31.42
2022-08-19T13:07:48.234Z,29.97
2022-08-19T13:09:05.540Z,32.23
2022-08-19T13:10:23.883Z,30.62
2022-08-19T13:11:42.221Z,30.29
2022-08-19T13:13:00.537Z,38.67
2022-08-19T13:14:18.902Z,29.65
2022-08-19T13:15:37.215Z,31.10
2022-08-19T13:16:55.825Z,30.45
2022-08-19T13:18:14.144Z,30.78
2022-08-19T13:19:32.574Z,30.29
2022-08-19T13:20:52.889Z,33.84
2022-08-19T13:22:13.275Z,30.45
2022-08-19T13:23:33.787Z,30.13
2022-08-19T13:24:52.117Z,29.97
2022-08-19T13:26:10.439Z,30.29
2022-08-19T13:27:28.792Z,30.13
2022-08-19T13:28:47.370Z,29.81
2022-08-19T13:30:06.042Z,30.29
2022-08-19T13:31:24.331Z,30.29
2022-08-19T13:32:42.651Z,30.78
2022-08-19T13:34:03.232Z,29.65
2022-08-19T13:35:21.902Z,29.97
2022-08-19T13:36:40.203Z,30.45
2022-08-19T13:37:58.503Z,30.45
2022-08-19T13:39:16.844Z,30.13
2022-08-19T13:40:35.224Z,30.94
2022-08-19T13:41:57.346Z,30.29
2022-08-19T13:43:23.023Z,30.78
2022-08-19T13:44:37.848Z,30.13
2022-08-19T13:45:56.509Z,30.78
2022-08-19T13:47:13.777Z,29.97
2022-08-19T13:48:32.125Z,29.97
2022-08-19T13:49:50.441Z,30.29
2022-08-19T13:51:07.752Z,30.13
2022-08-19T13:52:26.831Z,29.49
2022-08-19T13:53:47.904Z,30.29
2022-08-19T13:55:06.501Z,32.39
2022-08-19T13:56:26.470Z,31.10
2022-08-19T13:57:44.972Z,30.78
2022-08-19T13:59:03.834Z,29.81
2022-08-19T14:00:22.173Z,30.13
2022-08-19T14:01:40.536Z,29.49
2022-08-19T14:02:58.874Z,30.29
2022-08-19T14:04:16.176Z,31.26
2022-08-19T14:05:34.809Z,30.13
2022-08-19T14:06:52.128Z,30.62
2022-08-19T14:08:09.448Z,30.62
2022-08-19T14:09:27.789Z,29.81
2022-08-19T14:10:46.158Z,30.62
2022-08-19T14:12:03.750Z,29.81
2022-08-19T14:13:22.120Z,31.10
2022-08-19T14:14:40.430Z,29.97
2022-08-19T14:15:57.771Z,30.29
2022-08-19T14:17:17.961Z,30.13
2022-08-19T14:18:36.072Z,30.78
2022-08-19T14:19:53.384Z,30.29
2022-08-19T14:21:11.753Z,30.45
2022-08-19T14:22:30.075Z,29.65
2022-08-19T14:23:48.424Z,29.81
2022-08-19T14:25:06.745Z,29.81
2022-08-19T14:26:25.107Z,30.78
2022-08-19T14:27:42.437Z,31.74
2022-08-19T14:29:00.776Z,30.62
2022-08-19T14:30:18.366Z,29.97
2022-08-19T14:31:36.748Z,30.29
2022-08-19T14:32:55.050Z,30.29
2022-08-19T14:34:13.378Z,30.62
2022-08-19T14:35:30.699Z,31.10
2022-08-19T14:36:49.339Z,30.78
2022-08-19T14:38:07.166Z,29.81
2022-08-19T14:39:25.501Z,30.13
2022-08-19T14:40:44.323Z,29.97
2022-08-19T14:42:02.652Z,30.45
2022-08-19T14:43:21.243Z,30.29
2022-08-19T14:44:39.592Z,30.62
2022-08-19T14:45:57.942Z,29.97
2022-08-19T14:47:17.184Z,30.29
2022-08-19T14:48:35.645Z,29.97
2022-08-19T14:49:58.806Z,30.78
2022-08-19T14:51:17.727Z,29.65
2022-08-19T14:52:36.097Z,30.78
2022-08-19T14:53:54.418Z,29.81
2022-08-19T14:55:13.038Z,29.97
2022-08-19T14:56:31.390Z,30.62
2022-08-19T14:57:49.753Z,29.49
2022-08-19T14:59:08.047Z,30.78
2022-08-19T15:00:26.410Z,30.29
2022-08-19T15:01:44.756Z,29.97
2022-08-19T15:03:03.061Z,29.97
2022-08-19T15:04:21.372Z,29.65
2022-08-19T15:05:39.742Z,30.45
2022-08-19T15:06:56.394Z,29.33
2022-08-19T15:08:14.737Z,30.29
2022-08-19T15:09:33.044Z,30.13
2022-08-19T15:10:51.438Z,30.29
2022-08-19T15:12:09.732Z,30.13
2022-08-19T15:13:28.337Z,30.62
2022-08-19T15:14:46.657Z,29.65
2022-08-19T15:16:06.188Z,30.29
2022-08-19T15:17:43.690Z,29.97
2022-08-19T15:18:52.508Z,30.94
2022-08-19T15:20:11.092Z,30.29
2022-08-19T15:21:29.429Z,29.49
2022-08-19T15:22:47.741Z,30.45
2022-08-19T15:24:06.051Z,29.81
2022-08-19T15:25:23.873Z,29.81
2022-08-19T15:26:41.463Z,29.97
2022-08-19T15:27:59.793Z,30.29
2022-08-19T15:29:18.123Z,29.65
2022-08-19T15:30:36.484Z,30.62
2022-08-19T15:31:54.814Z,30.13
2022-08-19T15:33:15.855Z,30.45
2022-08-19T15:34:34.276Z,30.45
2022-08-19T15:35:52.588Z,29.65
2022-08-19T15:37:10.926Z,29.65
2022-08-19T15:38:29.518Z,30.78
2022-08-19T15:39:47.969Z,30.45
2022-08-19T15:41:06.259Z,29.81
2022-08-19T15:42:29.627Z,30.29
2022-08-19T15:43:46.819Z,29.97
2022-08-19T15:45:05.442Z,33.19
2022-08-19T15:46:23.770Z,30.13
2022-08-19T15:47:42.102Z,29.97
2022-08-19T15:49:00.678Z,30.29
2022-08-19T15:50:18.982Z,30.29
2022-08-19T15:51:37.593Z,29.65
2022-08-19T15:52:55.924Z,29.81
2022-08-19T15:54:13.306Z,29.65
2022-08-19T15:55:34.177Z,29.97
2022-08-19T15:56:58.285Z,30.45
2022-08-19T15:58:20.614Z,29.81
2022-08-19T15:59:46.895Z,29.49
2022-08-19T16:01:02.441Z,29.33
2022-08-19T16:02:21.688Z,29.65
2022-08-19T16:03:44.839Z,31.90
2022-08-19T16:05:05.629Z,29.33
2022-08-19T16:06:23.969Z,29.33
2022-08-19T16:07:42.283Z,30.13
2022-08-19T16:09:00.684Z,30.29
2022-08-19T16:10:26.841Z,29.65
2022-08-19T16:11:45.453Z,30.29
2022-08-19T16:13:04.253Z,30.45
2022-08-19T16:14:21.874Z,30.13
2022-08-19T16:15:40.252Z,29.65
2022-08-19T16:16:58.554Z,29.81
2022-08-19T16:18:16.865Z,29.65
2022-08-19T16:19:35.206Z,29.97
2022-08-19T16:20:53.797Z,29.33
2022-08-19T16:22:12.147Z,29.65
2022-08-19T16:23:30.458Z,29.65
2022-08-19T16:24:48.828Z,29.49
2022-08-19T16:26:07.148Z,29.49
2022-08-19T16:27:25.789Z,29.49
2022-08-19T16:28:44.100Z,29.65
2022-08-19T16:30:02.448Z,29.49
2022-08-19T16:31:20.753Z,29.49
2022-08-19T16:32:39.181Z,34.48
2022-08-19T16:33:57.762Z,29.65
2022-08-19T16:35:16.165Z,30.62
2022-08-19T16:36:33.454Z,29.81
2022-08-19T16:37:51.883Z,29.81
2022-08-19T16:39:10.225Z,29.65
2022-08-19T16:40:28.833Z,29.81
2022-08-19T16:41:47.164Z,29.97
2022-08-19T16:43:05.525Z,31.42
2022-08-19T16:44:23.836Z,29.65
2022-08-19T16:45:42.862Z,29.49
2022-08-19T16:47:02.688Z,29.97
2022-08-19T16:48:21.082Z,31.26
2022-08-19T16:49:54.611Z,29.65
2022-08-19T16:51:02.569Z,29.81
2022-08-19T16:52:21.890Z,29.65
2022-08-19T16:53:40.221Z,29.65
2022-08-19T16:54:58.532Z,29.65
2022-08-19T16:56:16.880Z,29.81
2022-08-19T16:57:35.216Z,29.17
2022-08-19T16:58:53.822Z,29.65
2022-08-19T17:00:12.133Z,29.65
2022-08-19T17:01:30.033Z,29.65
2022-08-19T17:02:48.433Z,29.97
2022-08-19T17:04:06.746Z,30.78
2022-08-19T17:05:25.365Z,30.78
2022-08-19T17:06:43.688Z,29.65
2022-08-19T17:08:01.977Z,29.97
2022-08-19T17:09:25.982Z,29.49
2022-08-19T17:10:56.859Z,29.33
2022-08-19T17:12:06.707Z,30.29
2022-08-19T17:13:24.999Z,28.84
2022-08-19T17:14:45.653Z,29.49
2022-08-19T17:16:04.052Z,29.65
2022-08-19T17:17:26.968Z,29.81
2022-08-19T17:18:45.611Z,30.29
2022-08-19T17:20:03.954Z,29.65
2022-08-19T17:21:22.262Z,29.65